sensor_id;sensor_type;location;lat;lon;timestamp;P1;durP1;ratioP1;P2;durP2;ratioP2
65477;SDS011;53678;39.642;22.430;2023-07-29T00:01:43;4.00;;;2.85;;
65477;SDS011;53678;39.642;22.430;2023-07-29T00:04:09;4.88;;;3.03;;
65477;SDS011;53678;39.642;22.430;2023-07-29T00:06:35;10.20;;;2.92;;
65477;SDS011;53678;39.642;22.430;2023-07-29T00:09:01;8.23;;;2.97;;
65477;SDS011;53678;39.642;22.430;2023-07-29T00:11:27;9.35;;;3.13;;
65477;SDS011;53678;39.642;22.430;2023-07-29T00:13:53;10.75;;;3.35;;
65477;SDS011;53678;39.642;22.430;2023-07-29T00:16:19;15.13;;;4.32;;
65477;SDS011;53678;39.642;22.430;2023-07-29T00:18:48;7.78;;;3.50;;
65477;SDS011;53678;39.642;22.430;2023-07-29T00:21:14;4.43;;;3.20;;
65477;SDS011;53678;39.642;22.430;2023-07-29T00:23:40;6.85;;;3.15;;
65477;SDS011;53678;39.642;22.430;2023-07-29T00:26:05;8.60;;;3.95;;
65477;SDS011;53678;39.642;22.430;2023-07-29T00:28:31;8.18;;;3.47;;
65477;SDS011;53678;39.642;22.430;2023-07-29T00:30:58;7.53;;;3.97;;
65477;SDS011;53678;39.642;22.430;2023-07-29T00:33:24;7.32;;;3.78;;
65477;SDS011;53678;39.642;22.430;2023-07-29T00:35:49;7.82;;;4.20;;
65477;SDS011;53678;39.642;22.430;2023-07-29T00:38:15;13.95;;;4.32;;
65477;SDS011;53678;39.642;22.430;2023-07-29T00:40:41;8.07;;;3.83;;
65477;SDS011;53678;39.642;22.430;2023-07-29T00:43:07;6.78;;;3.70;;
65477;SDS011;53678;39.642;22.430;2023-07-29T00:45:34;7.43;;;3.63;;
65477;SDS011;53678;39.642;22.430;2023-07-29T00:48:01;10.35;;;4.07;;
65477;SDS011;53678;39.642;22.430;2023-07-29T00:50:28;13.70;;;4.45;;
65477;SDS011;53678;39.642;22.430;2023-07-29T00:52:55;6.13;;;3.28;;
65477;SDS011;53678;39.642;22.430;2023-07-29T00:55:22;13.18;;;4.15;;
65477;SDS011;53678;39.642;22.430;2023-07-29T00:57:49;10.40;;;3.60;;
65477;SDS011;53678;39.642;22.430;2023-07-29T01:00:19;13.00;;;3.38;;
65477;SDS011;53678;39.642;22.430;2023-07-29T01:02:46;8.63;;;3.78;;
65477;SDS011;53678;39.642;22.430;2023-07-29T01:05:12;8.50;;;3.70;;
65477;SDS011;53678;39.642;22.430;2023-07-29T01:10:26;8.98;;;3.75;;
65477;SDS011;53678;39.642;22.430;2023-07-29T01:13:16;7.78;;;3.33;;
65477;SDS011;53678;39.642;22.430;2023-07-29T01:15:56;6.78;;;3.17;;
65477;SDS011;53678;39.642;22.430;2023-07-29T01:18:27;5.95;;;3.10;;
65477;SDS011;53678;39.642;22.430;2023-07-29T01:20:58;6.68;;;3.30;;
65477;SDS011;53678;39.642;22.430;2023-07-29T01:23:29;7.28;;;2.85;;
65477;SDS011;53678;39.642;22.430;2023-07-29T01:25:59;6.72;;;3.40;;
65477;SDS011;53678;39.642;22.430;2023-07-29T01:28:25;10.27;;;3.70;;
65477;SDS011;53678;39.642;22.430;2023-07-29T01:30:52;12.52;;;3.55;;
65477;SDS011;53678;39.642;22.430;2023-07-29T01:33:38;13.18;;;3.83;;
65477;SDS011;53678;39.642;22.430;2023-07-29T01:36:10;11.68;;;4.13;;
65477;SDS011;53678;39.642;22.430;2023-07-29T01:38:40;11.63;;;3.92;;
65477;SDS011;53678;39.642;22.430;2023-07-29T01:41:08;10.30;;;3.90;;
65477;SDS011;53678;39.642;22.430;2023-07-29T01:43:34;9.90;;;4.40;;
65477;SDS011;53678;39.642;22.430;2023-07-29T01:46:09;7.40;;;3.25;;
65477;SDS011;53678;39.642;22.430;2023-07-29T01:48:41;7.38;;;3.97;;
65477;SDS011;53678;39.642;22.430;2023-07-29T01:51:07;8.35;;;3.50;;
65477;SDS011;53678;39.642;22.430;2023-07-29T01:53:34;6.75;;;3.58;;
65477;SDS011;53678;39.642;22.430;2023-07-29T01:56:00;10.13;;;3.67;;
65477;SDS011;53678;39.642;22.430;2023-07-29T01:58:27;8.38;;;4.00;;
65477;SDS011;53678;39.642;22.430;2023-07-29T02:00:53;8.05;;;4.38;;
65477;SDS011;53678;39.642;22.430;2023-07-29T02:03:19;6.13;;;3.53;;
65477;SDS011;53678;39.642;22.430;2023-07-29T02:05:45;9.13;;;3.65;;
65477;SDS011;53678;39.642;22.430;2023-07-29T02:08:11;12.25;;;4.40;;
65477;SDS011;53678;39.642;22.430;2023-07-29T02:10:37;7.20;;;4.03;;
65477;SDS011;53678;39.642;22.430;2023-07-29T02:13:03;8.02;;;4.10;;
65477;SDS011;53678;39.642;22.430;2023-07-29T02:15:29;6.57;;;3.63;;
65477;SDS011;53678;39.642;22.430;2023-07-29T02:17:55;7.57;;;4.13;;
65477;SDS011;53678;39.642;22.430;2023-07-29T02:20:20;7.75;;;4.22;;
65477;SDS011;53678;39.642;22.430;2023-07-29T02:22:48;8.02;;;3.85;;
65477;SDS011;53678;39.642;22.430;2023-07-29T02:25:14;8.23;;;3.95;;
65477;SDS011;53678;39.642;22.430;2023-07-29T02:27:40;8.77;;;3.90;;
65477;SDS011;53678;39.642;22.430;2023-07-29T02:30:06;6.72;;;3.40;;
65477;SDS011;53678;39.642;22.430;2023-07-29T02:32:35;5.03;;;3.28;;
65477;SDS011;53678;39.642;22.430;2023-07-29T02:35:01;4.93;;;3.05;;
65477;SDS011;53678;39.642;22.430;2023-07-29T02:37:26;7.70;;;3.58;;
65477;SDS011;53678;39.642;22.430;2023-07-29T02:39:52;7.72;;;3.70;;
65477;SDS011;53678;39.642;22.430;2023-07-29T02:42:18;5.47;;;3.25;;
65477;SDS011;53678;39.642;22.430;2023-07-29T02:44:43;7.32;;;3.40;;
65477;SDS011;53678;39.642;22.430;2023-07-29T02:47:09;6.93;;;4.00;;
65477;SDS011;53678;39.642;22.430;2023-07-29T02:49:35;21.08;;;4.78;;
65477;SDS011;53678;39.642;22.430;2023-07-29T02:52:01;9.68;;;3.95;;
65477;SDS011;53678;39.642;22.430;2023-07-29T02:54:26;12.95;;;4.57;;
65477;SDS011;53678;39.642;22.430;2023-07-29T02:56:53;15.52;;;4.68;;
65477;SDS011;53678;39.642;22.430;2023-07-29T02:59:18;8.50;;;3.95;;
65477;SDS011;53678;39.642;22.430;2023-07-29T03:01:45;9.48;;;4.35;;
65477;SDS011;53678;39.642;22.430;2023-07-29T03:04:11;9.73;;;3.80;;
65477;SDS011;53678;39.642;22.430;2023-07-29T03:06:38;6.60;;;3.78;;
65477;SDS011;53678;39.642;22.430;2023-07-29T03:09:04;19.17;;;5.65;;
65477;SDS011;53678;39.642;22.430;2023-07-29T03:11:30;12.82;;;4.18;;
65477;SDS011;53678;39.642;22.430;2023-07-29T03:13:56;6.88;;;4.30;;
65477;SDS011;53678;39.642;22.430;2023-07-29T03:16:22;10.35;;;4.47;;
65477;SDS011;53678;39.642;22.430;2023-07-29T03:18:53;6.40;;;4.05;;
65477;SDS011;53678;39.642;22.430;2023-07-29T03:21:18;10.98;;;5.18;;
65477;SDS011;53678;39.642;22.430;2023-07-29T03:23:44;12.57;;;4.35;;
65477;SDS011;53678;39.642;22.430;2023-07-29T03:26:10;6.80;;;4.55;;
65477;SDS011;53678;39.642;22.430;2023-07-29T03:28:39;15.98;;;5.95;;
65477;SDS011;53678;39.642;22.430;2023-07-29T03:31:06;12.75;;;5.65;;
65477;SDS011;53678;39.642;22.430;2023-07-29T03:33:32;8.32;;;4.93;;
65477;SDS011;53678;39.642;22.430;2023-07-29T03:35:58;8.98;;;4.72;;
65477;SDS011;53678;39.642;22.430;2023-07-29T03:38:24;9.73;;;4.55;;
65477;SDS011;53678;39.642;22.430;2023-07-29T03:40:50;11.55;;;4.93;;
65477;SDS011;53678;39.642;22.430;2023-07-29T03:43:16;10.20;;;5.25;;
65477;SDS011;53678;39.642;22.430;2023-07-29T03:45:42;12.48;;;4.40;;
65477;SDS011;53678;39.642;22.430;2023-07-29T03:48:08;8.35;;;4.53;;
65477;SDS011;53678;39.642;22.430;2023-07-29T03:50:34;11.27;;;4.85;;
65477;SDS011;53678;39.642;22.430;2023-07-29T03:53:04;13.70;;;5.00;;
65477;SDS011;53678;39.642;22.430;2023-07-29T03:55:30;13.65;;;5.03;;
65477;SDS011;53678;39.642;22.430;2023-07-29T03:57:57;13.65;;;5.10;;
65477;SDS011;53678;39.642;22.430;2023-07-29T04:00:23;11.90;;;4.63;;
65477;SDS011;53678;39.642;22.430;2023-07-29T04:02:49;11.98;;;4.47;;
65477;SDS011;53678;39.642;22.430;2023-07-29T04:05:16;9.13;;;4.13;;
65477;SDS011;53678;39.642;22.430;2023-07-29T04:07:42;13.52;;;4.75;;
65477;SDS011;53678;39.642;22.430;2023-07-29T04:10:08;20.40;;;5.28;;
65477;SDS011;53678;39.642;22.430;2023-07-29T04:12:34;11.05;;;4.05;;
65477;SDS011;53678;39.642;22.430;2023-07-29T04:15:00;9.60;;;3.95;;
65477;SDS011;53678;39.642;22.430;2023-07-29T04:17:26;6.22;;;3.67;;
65477;SDS011;53678;39.642;22.430;2023-07-29T04:19:52;15.23;;;4.55;;
65477;SDS011;53678;39.642;22.430;2023-07-29T04:22:20;9.13;;;4.40;;
65477;SDS011;53678;39.642;22.430;2023-07-29T04:24:46;11.98;;;3.65;;
65477;SDS011;53678;39.642;22.430;2023-07-29T04:27:12;8.35;;;3.67;;
65477;SDS011;53678;39.642;22.430;2023-07-29T04:29:38;10.32;;;3.60;;
65477;SDS011;53678;39.642;22.430;2023-07-29T04:32:04;10.57;;;3.97;;
65477;SDS011;53678;39.642;22.430;2023-07-29T04:34:30;9.43;;;3.85;;
65477;SDS011;53678;39.642;22.430;2023-07-29T04:36:57;13.25;;;4.28;;
65477;SDS011;53678;39.642;22.430;2023-07-29T04:39:23;7.68;;;3.88;;
65477;SDS011;53678;39.642;22.430;2023-07-29T04:41:49;16.33;;;4.88;;
65477;SDS011;53678;39.642;22.430;2023-07-29T04:44:15;9.82;;;4.03;;
65477;SDS011;53678;39.642;22.430;2023-07-29T04:46:40;6.15;;;3.80;;
65477;SDS011;53678;39.642;22.430;2023-07-29T04:49:06;7.82;;;3.47;;
65477;SDS011;53678;39.642;22.430;2023-07-29T04:51:32;9.40;;;3.90;;
65477;SDS011;53678;39.642;22.430;2023-07-29T04:53:58;9.05;;;3.88;;
65477;SDS011;53678;39.642;22.430;2023-07-29T04:56:24;6.50;;;3.83;;
65477;SDS011;53678;39.642;22.430;2023-07-29T04:58:50;8.88;;;3.65;;
65477;SDS011;53678;39.642;22.430;2023-07-29T05:01:16;14.65;;;4.00;;
65477;SDS011;53678;39.642;22.430;2023-07-29T05:03:41;10.60;;;3.85;;
65477;SDS011;53678;39.642;22.430;2023-07-29T05:06:07;11.88;;;3.90;;
65477;SDS011;53678;39.642;22.430;2023-07-29T05:08:33;9.43;;;4.28;;
65477;SDS011;53678;39.642;22.430;2023-07-29T05:10:59;7.18;;;3.67;;
65477;SDS011;53678;39.642;22.430;2023-07-29T05:13:25;7.32;;;3.60;;
65477;SDS011;53678;39.642;22.430;2023-07-29T05:15:51;11.07;;;4.28;;
65477;SDS011;53678;39.642;22.430;2023-07-29T05:18:18;9.98;;;3.92;;
65477;SDS011;53678;39.642;22.430;2023-07-29T05:20:44;10.48;;;3.85;;
65477;SDS011;53678;39.642;22.430;2023-07-29T05:23:09;11.52;;;4.30;;
65477;SDS011;53678;39.642;22.430;2023-07-29T05:25:35;13.15;;;4.13;;
65477;SDS011;53678;39.642;22.430;2023-07-29T05:28:01;11.15;;;4.22;;
65477;SDS011;53678;39.642;22.430;2023-07-29T05:30:28;15.35;;;4.68;;
65477;SDS011;53678;39.642;22.430;2023-07-29T05:32:56;9.60;;;4.00;;
65477;SDS011;53678;39.642;22.430;2023-07-29T05:35:23;11.10;;;4.32;;
65477;SDS011;53678;39.642;22.430;2023-07-29T05:37:49;9.88;;;4.63;;
65477;SDS011;53678;39.642;22.430;2023-07-29T05:40:14;10.95;;;4.13;;
65477;SDS011;53678;39.642;22.430;2023-07-29T05:42:40;6.32;;;3.67;;
65477;SDS011;53678;39.642;22.430;2023-07-29T05:45:06;9.55;;;4.20;;
65477;SDS011;53678;39.642;22.430;2023-07-29T05:47:33;12.02;;;4.25;;
65477;SDS011;53678;39.642;22.430;2023-07-29T05:49:58;12.73;;;4.57;;
65477;SDS011;53678;39.642;22.430;2023-07-29T05:52:27;11.55;;;4.25;;
65477;SDS011;53678;39.642;22.430;2023-07-29T05:54:52;6.53;;;3.90;;
65477;SDS011;53678;39.642;22.430;2023-07-29T05:57:18;10.07;;;3.78;;
65477;SDS011;53678;39.642;22.430;2023-07-29T05:59:44;10.77;;;4.07;;
65477;SDS011;53678;39.642;22.430;2023-07-29T06:02:10;8.60;;;3.78;;
65477;SDS011;53678;39.642;22.430;2023-07-29T06:04:36;8.40;;;3.65;;
65477;SDS011;53678;39.642;22.430;2023-07-29T06:07:01;6.05;;;3.70;;
65477;SDS011;53678;39.642;22.430;2023-07-29T06:09:27;9.88;;;3.90;;
65477;SDS011;53678;39.642;22.430;2023-07-29T06:11:53;9.82;;;3.80;;
65477;SDS011;53678;39.642;22.430;2023-07-29T06:14:19;8.13;;;4.35;;
65477;SDS011;53678;39.642;22.430;2023-07-29T06:16:46;5.38;;;2.92;;
65477;SDS011;53678;39.642;22.430;2023-07-29T06:19:12;5.63;;;2.70;;
65477;SDS011;53678;39.642;22.430;2023-07-29T06:21:39;4.22;;;2.70;;
65477;SDS011;53678;39.642;22.430;2023-07-29T06:24:05;4.63;;;2.88;;
65477;SDS011;53678;39.642;22.430;2023-07-29T06:26:31;8.63;;;3.33;;
65477;SDS011;53678;39.642;22.430;2023-07-29T06:28:56;5.68;;;2.97;;
65477;SDS011;53678;39.642;22.430;2023-07-29T06:31:22;4.65;;;2.90;;
65477;SDS011;53678;39.642;22.430;2023-07-29T06:33:48;5.88;;;3.33;;
65477;SDS011;53678;39.642;22.430;2023-07-29T06:36:13;8.15;;;3.13;;
65477;SDS011;53678;39.642;22.430;2023-07-29T06:38:39;6.97;;;2.88;;
65477;SDS011;53678;39.642;22.430;2023-07-29T06:41:06;5.00;;;2.55;;
65477;SDS011;53678;39.642;22.430;2023-07-29T06:43:31;7.25;;;2.60;;
65477;SDS011;53678;39.642;22.430;2023-07-29T06:45:57;3.72;;;2.60;;
65477;SDS011;53678;39.642;22.430;2023-07-29T06:48:23;4.68;;;2.60;;
65477;SDS011;53678;39.642;22.430;2023-07-29T06:50:49;8.70;;;2.55;;
65477;SDS011;53678;39.642;22.430;2023-07-29T06:53:15;5.18;;;2.65;;
65477;SDS011;53678;39.642;22.430;2023-07-29T06:55:42;5.80;;;3.00;;
65477;SDS011;53678;39.642;22.430;2023-07-29T06:58:08;6.53;;;2.97;;
65477;SDS011;53678;39.642;22.430;2023-07-29T07:00:35;6.70;;;2.65;;
65477;SDS011;53678;39.642;22.430;2023-07-29T07:03:00;4.32;;;2.60;;
65477;SDS011;53678;39.642;22.430;2023-07-29T07:05:26;9.63;;;2.95;;
65477;SDS011;53678;39.642;22.430;2023-07-29T07:07:52;6.60;;;2.40;;
65477;SDS011;53678;39.642;22.430;2023-07-29T07:10:18;5.80;;;2.55;;
65477;SDS011;53678;39.642;22.430;2023-07-29T07:12:44;5.00;;;2.70;;
65477;SDS011;53678;39.642;22.430;2023-07-29T07:15:10;6.22;;;2.78;;
65477;SDS011;53678;39.642;22.430;2023-07-29T07:17:35;7.55;;;3.00;;
65477;SDS011;53678;39.642;22.430;2023-07-29T07:20:01;5.53;;;2.90;;
65477;SDS011;53678;39.642;22.430;2023-07-29T07:22:27;4.20;;;2.38;;
65477;SDS011;53678;39.642;22.430;2023-07-29T07:24:53;6.32;;;2.60;;
65477;SDS011;53678;39.642;22.430;2023-07-29T07:27:18;6.15;;;2.53;;
65477;SDS011;53678;39.642;22.430;2023-07-29T07:29:44;4.80;;;2.70;;
65477;SDS011;53678;39.642;22.430;2023-07-29T07:32:10;5.85;;;3.00;;
65477;SDS011;53678;39.642;22.430;2023-07-29T07:34:35;8.43;;;2.72;;
65477;SDS011;53678;39.642;22.430;2023-07-29T07:37:01;5.10;;;2.70;;
65477;SDS011;53678;39.642;22.430;2023-07-29T07:39:29;8.43;;;3.13;;
65477;SDS011;53678;39.642;22.430;2023-07-29T07:41:54;4.15;;;2.47;;
65477;SDS011;53678;39.642;22.430;2023-07-29T07:44:20;4.88;;;2.70;;
65477;SDS011;53678;39.642;22.430;2023-07-29T07:46:46;6.22;;;2.85;;
65477;SDS011;53678;39.642;22.430;2023-07-29T07:49:12;4.82;;;2.40;;
65477;SDS011;53678;39.642;22.430;2023-07-29T07:51:38;4.47;;;2.75;;
65477;SDS011;53678;39.642;22.430;2023-07-29T07:54:04;4.35;;;2.70;;
65477;SDS011;53678;39.642;22.430;2023-07-29T07:56:30;4.03;;;2.50;;
65477;SDS011;53678;39.642;22.430;2023-07-29T07:58:55;4.47;;;2.53;;
65477;SDS011;53678;39.642;22.430;2023-07-29T08:01:21;4.93;;;2.90;;
65477;SDS011;53678;39.642;22.430;2023-07-29T08:03:47;7.13;;;2.70;;
65477;SDS011;53678;39.642;22.430;2023-07-29T08:06:13;8.38;;;3.63;;
65477;SDS011;53678;39.642;22.430;2023-07-29T08:08:38;6.53;;;3.00;;
65477;SDS011;53678;39.642;22.430;2023-07-29T08:11:04;11.95;;;4.10;;
65477;SDS011;53678;39.642;22.430;2023-07-29T08:13:30;7.53;;;3.17;;
65477;SDS011;53678;39.642;22.430;2023-07-29T08:15:56;9.63;;;3.10;;
65477;SDS011;53678;39.642;22.430;2023-07-29T08:18:22;4.80;;;3.10;;
65477;SDS011;53678;39.642;22.430;2023-07-29T08:20:57;8.95;;;2.70;;
65477;SDS011;53678;39.642;22.430;2023-07-29T08:23:25;5.63;;;2.70;;
65477;SDS011;53678;39.642;22.430;2023-07-29T08:25:52;7.20;;;2.65;;
65477;SDS011;53678;39.642;22.430;2023-07-29T08:28:26;5.40;;;2.80;;
65477;SDS011;53678;39.642;22.430;2023-07-29T08:30:56;9.55;;;3.80;;
65477;SDS011;53678;39.642;22.430;2023-07-29T08:33:21;4.75;;;2.67;;
65477;SDS011;53678;39.642;22.430;2023-07-29T08:35:47;4.32;;;2.90;;
65477;SDS011;53678;39.642;22.430;2023-07-29T08:38:13;5.03;;;2.80;;
65477;SDS011;53678;39.642;22.430;2023-07-29T08:40:42;6.32;;;2.70;;
65477;SDS011;53678;39.642;22.430;2023-07-29T08:43:23;5.80;;;2.72;;
65477;SDS011;53678;39.642;22.430;2023-07-29T08:45:54;6.47;;;2.63;;
65477;SDS011;53678;39.642;22.430;2023-07-29T08:48:23;8.23;;;2.75;;
65477;SDS011;53678;39.642;22.430;2023-07-29T08:50:57;6.70;;;2.78;;
65477;SDS011;53678;39.642;22.430;2023-07-29T08:53:26;4.32;;;2.70;;
65477;SDS011;53678;39.642;22.430;2023-07-29T08:55:53;8.10;;;2.85;;
65477;SDS011;53678;39.642;22.430;2023-07-29T08:58:21;7.97;;;3.15;;
65477;SDS011;53678;39.642;22.430;2023-07-29T09:00:48;7.00;;;2.95;;
65477;SDS011;53678;39.642;22.430;2023-07-29T09:03:13;5.50;;;2.92;;
65477;SDS011;53678;39.642;22.430;2023-07-29T09:05:39;3.72;;;2.45;;
65477;SDS011;53678;39.642;22.430;2023-07-29T09:08:05;7.20;;;3.55;;
65477;SDS011;53678;39.642;22.430;2023-07-29T09:10:35;14.18;;;3.08;;
65477;SDS011;53678;39.642;22.430;2023-07-29T09:13:02;6.65;;;2.80;;
65477;SDS011;53678;39.642;22.430;2023-07-29T09:15:32;5.15;;;2.85;;
65477;SDS011;53678;39.642;22.430;2023-07-29T09:20:37;8.27;;;2.80;;
65477;SDS011;53678;39.642;22.430;2023-07-29T09:23:02;6.20;;;2.58;;
65477;SDS011;53678;39.642;22.430;2023-07-29T09:25:30;8.25;;;3.45;;
65477;SDS011;53678;39.642;22.430;2023-07-29T09:27:58;6.60;;;3.25;;
65477;SDS011;53678;39.642;22.430;2023-07-29T09:30:28;4.85;;;2.80;;
65477;SDS011;53678;39.642;22.430;2023-07-29T09:32:57;7.60;;;2.58;;
65477;SDS011;53678;39.642;22.430;2023-07-29T09:35:24;5.22;;;2.85;;
65477;SDS011;53678;39.642;22.430;2023-07-29T09:37:52;7.45;;;2.60;;
65477;SDS011;53678;39.642;22.430;2023-07-29T09:40:18;5.18;;;2.80;;
65477;SDS011;53678;39.642;22.430;2023-07-29T09:42:51;5.32;;;3.00;;
65477;SDS011;53678;39.642;22.430;2023-07-29T09:45:21;3.75;;;2.58;;
65477;SDS011;53678;39.642;22.430;2023-07-29T09:47:48;10.50;;;3.10;;
65477;SDS011;53678;39.642;22.430;2023-07-29T09:50:14;4.72;;;3.22;;
65477;SDS011;53678;39.642;22.430;2023-07-29T09:52:40;7.85;;;2.90;;
65477;SDS011;53678;39.642;22.430;2023-07-29T09:55:06;7.85;;;3.95;;
65477;SDS011;53678;39.642;22.430;2023-07-29T09:57:32;6.80;;;3.40;;
65477;SDS011;53678;39.642;22.430;2023-07-29T09:59:59;7.18;;;3.97;;
65477;SDS011;53678;39.642;22.430;2023-07-29T10:02:24;5.50;;;2.97;;
65477;SDS011;53678;39.642;22.430;2023-07-29T10:04:54;6.43;;;2.85;;
65477;SDS011;53678;39.642;22.430;2023-07-29T10:07:20;8.73;;;2.90;;
65477;SDS011;53678;39.642;22.430;2023-07-29T10:09:46;6.55;;;2.88;;
65477;SDS011;53678;39.642;22.430;2023-07-29T10:12:13;9.23;;;3.03;;
65477;SDS011;53678;39.642;22.430;2023-07-29T10:14:39;7.20;;;3.00;;
65477;SDS011;53678;39.642;22.430;2023-07-29T10:17:06;7.78;;;3.03;;
65477;SDS011;53678;39.642;22.430;2023-07-29T10:19:33;6.15;;;2.90;;
65477;SDS011;53678;39.642;22.430;2023-07-29T10:21:59;5.97;;;2.97;;
65477;SDS011;53678;39.642;22.430;2023-07-29T10:24:32;7.97;;;3.47;;
65477;SDS011;53678;39.642;22.430;2023-07-29T10:26:59;4.43;;;2.83;;
65477;SDS011;53678;39.642;22.430;2023-07-29T10:29:32;9.15;;;3.35;;
65477;SDS011;53678;39.642;22.430;2023-07-29T10:32:03;4.90;;;3.17;;
65477;SDS011;53678;39.642;22.430;2023-07-29T10:34:33;10.43;;;3.55;;
65477;SDS011;53678;39.642;22.430;2023-07-29T10:37:02;8.30;;;3.20;;
65477;SDS011;53678;39.642;22.430;2023-07-29T10:39:32;6.88;;;2.47;;
65477;SDS011;53678;39.642;22.430;2023-07-29T10:42:07;8.75;;;2.95;;
65477;SDS011;53678;39.642;22.430;2023-07-29T10:47:11;8.88;;;3.35;;
65477;SDS011;53678;39.642;22.430;2023-07-29T10:49:40;6.25;;;2.78;;
65477;SDS011;53678;39.642;22.430;2023-07-29T10:52:06;10.93;;;3.85;;
65477;SDS011;53678;39.642;22.430;2023-07-29T10:54:42;4.40;;;3.03;;
65477;SDS011;53678;39.642;22.430;2023-07-29T10:57:12;7.47;;;3.85;;
65477;SDS011;53678;39.642;22.430;2023-07-29T10:59:52;5.93;;;2.90;;
65477;SDS011;53678;39.642;22.430;2023-07-29T11:02:28;5.45;;;2.90;;
65477;SDS011;53678;39.642;22.430;2023-07-29T11:04:55;7.18;;;2.85;;
65477;SDS011;53678;39.642;22.430;2023-07-29T11:07:21;6.15;;;2.80;;
65477;SDS011;53678;39.642;22.430;2023-07-29T11:12:34;5.25;;;2.55;;
65477;SDS011;53678;39.642;22.430;2023-07-29T11:15:03;5.82;;;3.40;;
65477;SDS011;53678;39.642;22.430;2023-07-29T11:17:34;4.20;;;2.95;;
65477;SDS011;53678;39.642;22.430;2023-07-29T11:20:01;7.63;;;2.70;;
65477;SDS011;53678;39.642;22.430;2023-07-29T11:22:28;5.05;;;2.75;;
65477;SDS011;53678;39.642;22.430;2023-07-29T11:24:55;4.18;;;3.10;;
65477;SDS011;53678;39.642;22.430;2023-07-29T11:27:20;5.03;;;2.65;;
65477;SDS011;53678;39.642;22.430;2023-07-29T11:29:46;8.15;;;2.80;;
65477;SDS011;53678;39.642;22.430;2023-07-29T11:32:13;3.83;;;2.72;;
65477;SDS011;53678;39.642;22.430;2023-07-29T11:34:40;3.55;;;2.67;;
65477;SDS011;53678;39.642;22.430;2023-07-29T11:37:06;9.00;;;2.80;;
65477;SDS011;53678;39.642;22.430;2023-07-29T11:39:38;4.07;;;2.63;;
65477;SDS011;53678;39.642;22.430;2023-07-29T11:42:05;12.35;;;3.83;;
65477;SDS011;53678;39.642;22.430;2023-07-29T11:44:31;7.30;;;3.13;;
65477;SDS011;53678;39.642;22.430;2023-07-29T11:46:56;6.85;;;3.30;;
65477;SDS011;53678;39.642;22.430;2023-07-29T11:49:22;8.13;;;2.85;;
65477;SDS011;53678;39.642;22.430;2023-07-29T11:51:48;8.80;;;2.60;;
65477;SDS011;53678;39.642;22.430;2023-07-29T11:54:14;4.80;;;2.60;;
65477;SDS011;53678;39.642;22.430;2023-07-29T11:56:40;6.50;;;2.65;;
65477;SDS011;53678;39.642;22.430;2023-07-29T11:59:06;4.50;;;2.90;;
65477;SDS011;53678;39.642;22.430;2023-07-29T12:01:33;5.10;;;2.67;;
65477;SDS011;53678;39.642;22.430;2023-07-29T12:03:58;3.20;;;2.50;;
65477;SDS011;53678;39.642;22.430;2023-07-29T12:06:25;7.47;;;2.80;;
65477;SDS011;53678;39.642;22.430;2023-07-29T12:08:51;6.57;;;3.30;;
65477;SDS011;53678;39.642;22.430;2023-07-29T12:11:17;4.20;;;2.42;;
65477;SDS011;53678;39.642;22.430;2023-07-29T12:13:43;6.13;;;2.65;;
65477;SDS011;53678;39.642;22.430;2023-07-29T12:16:09;3.95;;;2.42;;
65477;SDS011;53678;39.642;22.430;2023-07-29T12:18:35;6.43;;;2.50;;
65477;SDS011;53678;39.642;22.430;2023-07-29T12:21:02;4.35;;;2.60;;
65477;SDS011;53678;39.642;22.430;2023-07-29T12:23:28;4.97;;;2.45;;
65477;SDS011;53678;39.642;22.430;2023-07-29T12:25:58;3.38;;;2.38;;
65477;SDS011;53678;39.642;22.430;2023-07-29T12:28:25;3.50;;;2.50;;
65477;SDS011;53678;39.642;22.430;2023-07-29T12:30:54;4.25;;;2.47;;
65477;SDS011;53678;39.642;22.430;2023-07-29T12:33:36;4.28;;;2.70;;
65477;SDS011;53678;39.642;22.430;2023-07-29T12:36:07;3.60;;;2.10;;
65477;SDS011;53678;39.642;22.430;2023-07-29T12:38:33;6.43;;;2.35;;
65477;SDS011;53678;39.642;22.430;2023-07-29T12:40:59;5.03;;;2.55;;
65477;SDS011;53678;39.642;22.430;2023-07-29T12:43:24;3.80;;;2.15;;
65477;SDS011;53678;39.642;22.430;2023-07-29T12:45:50;3.45;;;2.38;;
65477;SDS011;53678;39.642;22.430;2023-07-29T12:48:17;4.57;;;2.63;;
65477;SDS011;53678;39.642;22.430;2023-07-29T12:50:42;4.55;;;2.10;;
65477;SDS011;53678;39.642;22.430;2023-07-29T12:53:08;4.70;;;2.60;;
65477;SDS011;53678;39.642;22.430;2023-07-29T12:55:37;4.55;;;2.60;;
65477;SDS011;53678;39.642;22.430;2023-07-29T12:58:03;3.08;;;2.17;;
65477;SDS011;53678;39.642;22.430;2023-07-29T13:00:30;5.97;;;2.30;;
65477;SDS011;53678;39.642;22.430;2023-07-29T13:02:55;4.18;;;2.17;;
65477;SDS011;53678;39.642;22.430;2023-07-29T13:05:21;3.45;;;2.20;;
65477;SDS011;53678;39.642;22.430;2023-07-29T13:07:47;5.55;;;2.15;;
65477;SDS011;53678;39.642;22.430;2023-07-29T13:10:13;3.55;;;2.00;;
65477;SDS011;53678;39.642;22.430;2023-07-29T13:12:39;4.50;;;2.15;;
65477;SDS011;53678;39.642;22.430;2023-07-29T13:15:06;6.35;;;2.30;;
65477;SDS011;53678;39.642;22.430;2023-07-29T13:17:32;4.95;;;2.20;;
65477;SDS011;53678;39.642;22.430;2023-07-29T13:19:59;4.57;;;2.13;;
65477;SDS011;53678;39.642;22.430;2023-07-29T13:22:24;5.35;;;2.17;;
65477;SDS011;53678;39.642;22.430;2023-07-29T13:24:50;4.28;;;2.42;;
65477;SDS011;53678;39.642;22.430;2023-07-29T13:27:16;3.15;;;2.35;;
65477;SDS011;53678;39.642;22.430;2023-07-29T13:29:42;3.58;;;2.20;;
65477;SDS011;53678;39.642;22.430;2023-07-29T13:32:08;4.15;;;2.25;;
65477;SDS011;53678;39.642;22.430;2023-07-29T13:34:34;3.47;;;2.08;;
65477;SDS011;53678;39.642;22.430;2023-07-29T13:37:00;3.67;;;2.17;;
65477;SDS011;53678;39.642;22.430;2023-07-29T13:39:26;3.30;;;2.38;;
65477;SDS011;53678;39.642;22.430;2023-07-29T13:41:52;5.28;;;2.80;;
65477;SDS011;53678;39.642;22.430;2023-07-29T13:44:19;3.65;;;2.35;;
65477;SDS011;53678;39.642;22.430;2023-07-29T13:46:46;2.38;;;2.00;;
65477;SDS011;53678;39.642;22.430;2023-07-29T13:49:12;4.20;;;2.22;;
65477;SDS011;53678;39.642;22.430;2023-07-29T13:51:38;3.50;;;2.15;;
65477;SDS011;53678;39.642;22.430;2023-07-29T13:54:03;4.10;;;2.20;;
65477;SDS011;53678;39.642;22.430;2023-07-29T13:56:29;4.13;;;2.03;;
65477;SDS011;53678;39.642;22.430;2023-07-29T13:58:55;4.47;;;2.13;;
65477;SDS011;53678;39.642;22.430;2023-07-29T14:01:20;3.00;;;1.88;;
65477;SDS011;53678;39.642;22.430;2023-07-29T14:03:46;5.72;;;2.10;;
65477;SDS011;53678;39.642;22.430;2023-07-29T14:06:12;2.60;;;2.20;;
65477;SDS011;53678;39.642;22.430;2023-07-29T14:08:37;6.38;;;2.30;;
65477;SDS011;53678;39.642;22.430;2023-07-29T14:11:06;4.07;;;1.88;;
65477;SDS011;53678;39.642;22.430;2023-07-29T14:13:32;2.75;;;2.15;;
65477;SDS011;53678;39.642;22.430;2023-07-29T14:16:00;3.47;;;1.90;;
65477;SDS011;53678;39.642;22.430;2023-07-29T14:18:27;5.20;;;2.38;;
65477;SDS011;53678;39.642;22.430;2023-07-29T14:20:53;4.00;;;2.08;;
65477;SDS011;53678;39.642;22.430;2023-07-29T14:23:19;4.05;;;2.20;;
65477;SDS011;53678;39.642;22.430;2023-07-29T14:25:44;3.97;;;2.00;;
65477;SDS011;53678;39.642;22.430;2023-07-29T14:28:12;4.80;;;2.10;;
65477;SDS011;53678;39.642;22.430;2023-07-29T14:30:39;5.60;;;2.30;;
65477;SDS011;53678;39.642;22.430;2023-07-29T14:33:06;3.13;;;1.88;;
65477;SDS011;53678;39.642;22.430;2023-07-29T14:35:32;3.35;;;2.08;;
65477;SDS011;53678;39.642;22.430;2023-07-29T14:37:58;3.47;;;2.05;;
65477;SDS011;53678;39.642;22.430;2023-07-29T14:40:23;6.00;;;2.15;;